createdAt,value
2023-03-06T00:02:25.295Z,0.73
2023-03-06T00:04:53.231Z,0.40
2023-03-06T00:07:19.747Z,0.52
2023-03-06T00:09:46.253Z,0.47
2023-03-06T00:12:12.854Z,0.50
2023-03-06T00:14:39.384Z,0.52
2023-03-06T00:17:05.906Z,0.50
2023-03-06T00:19:32.485Z,0.40
2023-03-06T00:21:59.005Z,0.50
2023-03-06T00:24:25.464Z,0.55
2023-03-06T00:26:52.013Z,0.70
2023-03-06T00:29:18.540Z,0.50
2023-03-06T00:31:47.895Z,0.50
2023-03-06T00:34:15.013Z,0.50
2023-03-06T00:36:41.893Z,0.70
2023-03-06T00:39:08.420Z,0.60
2023-03-06T00:41:34.936Z,0.63
2023-03-06T00:44:01.442Z,0.70
2023-03-06T00:46:28.015Z,0.80
2023-03-06T00:48:54.544Z,0.80
2023-03-06T00:51:21.735Z,1.10
2023-03-06T00:53:48.677Z,0.70
2023-03-06T00:56:15.183Z,0.80
2023-03-06T00:58:41.675Z,0.90
2023-03-06T01:01:08.401Z,1.08
2023-03-06T01:03:34.885Z,1.10
2023-03-06T01:06:01.486Z,1.20
2023-03-06T01:08:27.980Z,1.27
2023-03-06T01:10:54.550Z,1.43
2023-03-06T01:13:21.153Z,1.40
2023-03-06T01:15:47.795Z,1.30
2023-03-06T01:18:15.292Z,1.65
2023-03-06T01:20:42.140Z,1.77
2023-03-06T01:23:08.636Z,1.67
2023-03-06T01:25:35.200Z,1.92
2023-03-06T01:28:01.805Z,2.20
2023-03-06T01:30:28.357Z,2.28
2023-03-06T01:32:54.838Z,2.33
2023-03-06T01:35:21.335Z,2.03
2023-03-06T01:37:47.775Z,2.20
2023-03-06T01:40:14.599Z,2.88
2023-03-06T01:42:41.947Z,2.90
2023-03-06T01:45:11.412Z,2.47
2023-03-06T01:47:37.893Z,2.60
2023-03-06T01:50:07.104Z,2.78
2023-03-06T01:52:40.084Z,2.42
2023-03-06T01:55:14.403Z,3.20
2023-03-06T01:57:44.924Z,2.60
2023-03-06T02:00:19.292Z,2.87
2023-03-06T02:02:53.193Z,2.50
2023-03-06T02:05:19.800Z,3.03
2023-03-06T02:07:48.249Z,3.10
2023-03-06T02:10:15.981Z,3.08
2023-03-06T02:12:46.310Z,3.13
2023-03-06T02:15:14.767Z,3.78
2023-03-06T02:17:43.977Z,3.72
2023-03-06T02:20:20.855Z,3.60
2023-03-06T02:23:02.372Z,3.53
2023-03-06T02:25:37.228Z,3.53
2023-03-06T02:28:06.067Z,3.30
2023-03-06T02:30:33.406Z,3.88
2023-03-06T02:33:00.308Z,3.97
2023-03-06T02:35:32.790Z,4.32
2023-03-06T02:38:04.731Z,3.83
2023-03-06T02:40:31.283Z,4.20
2023-03-06T02:42:58.671Z,4.43
2023-03-06T02:45:40.648Z,4.78
2023-03-06T02:48:07.612Z,4.70
2023-03-06T02:50:34.137Z,4.50
2023-03-06T02:53:00.703Z,5.10
2023-03-06T02:55:27.518Z,4.75
2023-03-06T02:57:54.036Z,4.65
2023-03-06T03:00:20.795Z,4.68
2023-03-06T03:02:47.330Z,5.17
2023-03-06T03:05:14.296Z,4.90
2023-03-06T03:07:41.007Z,4.90
2023-03-06T03:10:08.427Z,4.60
2023-03-06T03:12:35.008Z,5.32
2023-03-06T03:15:01.555Z,4.00
2023-03-06T03:17:28.635Z,4.63
2023-03-06T03:19:55.238Z,4.95
2023-03-06T03:22:21.724Z,4.43
2023-03-06T03:24:48.300Z,5.35
2023-03-06T03:27:15.343Z,4.50
2023-03-06T03:29:42.718Z,4.32
2023-03-06T03:32:09.921Z,4.65
2023-03-06T03:34:36.412Z,4.88
2023-03-06T03:37:02.965Z,4.50
2023-03-06T03:39:29.475Z,4.13
2023-03-06T03:41:55.998Z,4.20
2023-03-06T03:44:22.651Z,4.70
2023-03-06T03:46:49.319Z,4.97
2023-03-06T03:49:16.024Z,4.32
2023-03-06T03:51:42.551Z,4.70
2023-03-06T03:54:09.012Z,3.60
2023-03-06T03:56:35.554Z,3.75
2023-03-06T03:59:02.412Z,4.03
2023-03-06T04:01:29.085Z,3.63
2023-03-06T04:03:55.652Z,3.97
2023-03-06T04:06:22.242Z,3.40
2023-03-06T04:08:48.853Z,3.35
2023-03-06T04:11:15.887Z,3.50
2023-03-06T04:13:42.388Z,3.47
2023-03-06T04:16:08.972Z,3.90
2023-03-06T04:18:35.638Z,3.97
2023-03-06T04:21:02.121Z,3.30
2023-03-06T04:23:28.847Z,3.90
2023-03-06T04:25:55.415Z,3.67
2023-03-06T04:28:21.977Z,3.50
2023-03-06T04:30:48.488Z,3.70
2023-03-06T04:33:15.309Z,3.95
2023-03-06T04:35:41.825Z,3.63
2023-03-06T04:38:08.584Z,3.72
2023-03-06T04:40:36.592Z,3.60
2023-03-06T04:43:04.197Z,3.22
2023-03-06T04:45:32.346Z,3.30
2023-03-06T04:47:59.345Z,3.35
2023-03-06T04:50:28.171Z,3.40
2023-03-06T04:52:54.728Z,3.00
2023-03-06T04:55:21.391Z,2.85
2023-03-06T04:57:48.484Z,3.10
2023-03-06T05:00:21.103Z,2.85
2023-03-06T05:02:48.812Z,2.30
2023-03-06T05:05:16.486Z,2.70
2023-03-06T05:07:43.342Z,1.90
2023-03-06T05:10:15.700Z,2.35
2023-03-06T05:12:42.858Z,2.03
2023-03-06T05:15:10.754Z,1.42
2023-03-06T05:17:37.872Z,1.60
2023-03-06T05:20:07.433Z,1.42
2023-03-06T05:22:34.937Z,1.65
2023-03-06T05:25:01.835Z,1.30
2023-03-06T05:27:29.039Z,1.42
2023-03-06T05:29:55.718Z,1.07
2023-03-06T05:32:22.913Z,1.30
2023-03-06T05:34:50.180Z,1.15
2023-03-06T05:37:16.892Z,1.48
2023-03-06T05:39:43.700Z,1.05
2023-03-06T05:42:10.449Z,0.97
2023-03-06T05:44:38.025Z,1.17
2023-03-06T05:47:04.809Z,1.42
2023-03-06T05:49:33.695Z,1.13
2023-03-06T05:52:01.299Z,1.52
2023-03-06T05:54:27.795Z,1.50
2023-03-06T05:56:54.336Z,1.95
2023-03-06T05:59:20.806Z,1.33
2023-03-06T06:01:47.269Z,1.30
2023-03-06T06:04:13.773Z,1.40
2023-03-06T06:06:40.529Z,1.37
2023-03-06T06:09:07.053Z,1.58
2023-03-06T06:11:33.550Z,1.10
2023-03-06T06:14:00.088Z,1.23
2023-03-06T06:16:26.615Z,1.42
2023-03-06T06:18:53.089Z,1.10
2023-03-06T06:21:19.583Z,0.88
2023-03-06T06:23:46.221Z,0.75
2023-03-06T06:26:12.705Z,0.77
2023-03-06T06:28:39.201Z,0.47
2023-03-06T06:31:13.194Z,1.10
2023-03-06T06:33:40.961Z,0.80
2023-03-06T06:36:18.910Z,0.60
2023-03-06T06:38:45.488Z,0.40
2023-03-06T06:41:36.000Z,0.70
2023-03-06T06:43:59.377Z,0.40
2023-03-06T06:47:14.338Z,0.70
2023-03-06T06:49:13.826Z,0.73
2023-03-06T06:51:41.271Z,0.40
2023-03-06T06:54:08.717Z,0.30
2023-03-06T06:56:35.442Z,0.43
2023-03-06T06:59:15.557Z,0.50
2023-03-06T07:01:43.544Z,0.47
2023-03-06T07:04:14.844Z,0.50
2023-03-06T07:06:42.557Z,0.20
2023-03-06T07:09:09.382Z,0.20
2023-03-06T07:11:37.872Z,0.28
2023-03-06T07:14:04.466Z,0.28
2023-03-06T07:16:30.964Z,0.20
2023-03-06T07:18:57.587Z,0.20
2023-03-06T07:21:24.380Z,0.13
2023-03-06T07:23:50.887Z,0.28
2023-03-06T07:26:17.385Z,0.20
2023-03-06T07:28:52.266Z,0.25
2023-03-06T07:31:25.733Z,0.10
2023-03-06T07:33:53.789Z,0.23
2023-03-06T07:36:22.500Z,0.20
2023-03-06T07:38:49.213Z,0.32
2023-03-06T07:41:16.568Z,0.20
2023-03-06T07:43:44.865Z,0.30
2023-03-06T07:46:12.776Z,0.10
2023-03-06T07:48:40.427Z,0.20
2023-03-06T07:51:27.355Z,0.20
2023-03-06T07:53:54.231Z,0.15
2023-03-06T07:56:20.933Z,0.05
2023-03-06T07:58:48.137Z,0.20
2023-03-06T08:01:17.689Z,0.10
2023-03-06T08:03:44.243Z,0.20
2023-03-06T08:06:19.428Z,0.10
2023-03-06T08:08:47.269Z,0.10
2023-03-06T08:11:15.940Z,0.10
2023-03-06T08:13:43.038Z,0.10
2023-03-06T08:16:10.484Z,0.25
2023-03-06T08:18:39.548Z,0.00
2023-03-06T08:21:07.706Z,0.10
2023-03-06T08:23:35.229Z,0.10
2023-03-06T08:26:07.717Z,0.10
2023-03-06T08:28:34.612Z,0.10
2023-03-06T08:31:12.958Z,0.10
2023-03-06T08:33:40.826Z,0.13
2023-03-06T08:36:07.675Z,0.10
2023-03-06T08:38:34.211Z,0.00
2023-03-06T08:41:00.872Z,0.10
2023-03-06T08:43:27.520Z,0.10
2023-03-06T08:45:55.431Z,0.10
2023-03-06T08:48:21.923Z,0.10
2023-03-06T08:50:49.067Z,0.10
2023-03-06T08:53:15.600Z,0.10
2023-03-06T08:55:42.251Z,0.03
2023-03-06T08:58:08.973Z,0.13
2023-03-06T09:00:36.681Z,0.07
2023-03-06T09:03:03.859Z,0.10
2023-03-06T09:05:30.502Z,0.10
2023-03-06T09:07:57.049Z,0.10
2023-03-06T09:10:25.170Z,0.10
2023-03-06T09:12:54.729Z,0.10
2023-03-06T09:15:22.144Z,0.10
2023-03-06T09:17:48.688Z,0.00
2023-03-06T09:20:15.834Z,0.00
2023-03-06T09:22:42.538Z,0.08
2023-03-06T09:25:11.095Z,0.10
2023-03-06T09:27:37.636Z,0.10
2023-03-06T09:30:04.849Z,0.20
2023-03-06T09:32:31.373Z,0.10
2023-03-06T09:34:57.866Z,0.10
2023-03-06T09:37:24.622Z,0.10
2023-03-06T09:39:51.245Z,0.10
2023-03-06T09:42:21.390Z,0.10
2023-03-06T09:44:55.981Z,0.10
2023-03-06T09:47:49.378Z,0.10
2023-03-06T09:50:26.393Z,0.10
2023-03-06T09:53:15.417Z,0.10
2023-03-06T09:55:50.221Z,0.10
2023-03-06T09:58:22.012Z,0.10
2023-03-06T10:01:12.663Z,0.10
2023-03-06T10:03:48.546Z,0.10
2023-03-06T10:06:25.089Z,0.10
2023-03-06T10:09:14.514Z,0.15
2023-03-06T10:11:56.565Z,0.10
2023-03-06T10:14:41.625Z,0.00
2023-03-06T10:17:17.731Z,0.07
2023-03-06T10:19:47.596Z,0.00
2023-03-06T10:22:20.383Z,0.00
2023-03-06T10:25:20.439Z,0.00
2023-03-06T10:27:57.501Z,0.00
2023-03-06T10:30:38.853Z,0.00
2023-03-06T10:33:11.315Z,0.25
2023-03-06T10:35:53.255Z,0.10
2023-03-06T10:38:31.887Z,0.10
2023-03-06T10:41:29.785Z,0.00
2023-03-06T10:44:05.470Z,0.00
2023-03-06T10:46:37.538Z,0.00
2023-03-06T10:49:23.540Z,0.10
2023-03-06T10:52:06.770Z,0.10
2023-03-06T10:54:39.764Z,0.10
2023-03-06T10:57:30.902Z,0.00
2023-03-06T11:00:20.659Z,0.05
2023-03-06T11:02:47.233Z,0.00
2023-03-06T11:05:20.978Z,0.10
2023-03-06T11:07:57.048Z,0.00
2023-03-06T11:10:24.430Z,0.20
2023-03-06T11:13:10.416Z,0.00
2023-03-06T11:15:36.976Z,0.00
2023-03-06T11:18:04.990Z,0.00
2023-03-06T11:20:51.615Z,0.10
2023-03-06T11:23:22.263Z,0.10
2023-03-06T11:25:54.890Z,0.00
2023-03-06T11:28:30.484Z,0.00
2023-03-06T11:31:09.756Z,0.20
2023-03-06T11:33:51.632Z,0.10
2023-03-06T11:36:36.193Z,0.10
2023-03-06T11:39:29.797Z,0.10
2023-03-06T11:42:10.929Z,0.10
2023-03-06T11:45:13.580Z,0.10
2023-03-06T11:47:49.237Z,0.20
2023-03-06T11:50:31.022Z,0.10
2023-03-06T11:53:00.033Z,0.10
2023-03-06T11:55:29.497Z,0.25
2023-03-06T11:58:23.820Z,0.10
2023-03-06T12:00:54.741Z,0.10
2023-03-06T12:03:49.028Z,0.40
2023-03-06T12:06:15.477Z,0.20
2023-03-06T12:08:51.408Z,0.20
2023-03-06T12:11:30.698Z,0.20
2023-03-06T12:14:36.111Z,0.20
2023-03-06T12:17:13.094Z,0.20
2023-03-06T12:19:52.086Z,0.25
2023-03-06T12:22:41.311Z,0.38
2023-03-06T12:25:27.868Z,0.30
2023-03-06T12:28:19.231Z,0.40
2023-03-06T12:31:09.556Z,0.30
2023-03-06T12:33:59.261Z,0.40
2023-03-06T12:36:42.580Z,0.57
2023-03-06T12:39:26.048Z,0.40
2023-03-06T12:42:02.504Z,0.40
2023-03-06T12:45:04.238Z,0.50
2023-03-06T12:47:36.407Z,0.40
2023-03-06T12:50:13.770Z,0.40
2023-03-06T12:52:41.656Z,0.50
2023-03-06T12:55:16.579Z,0.40
2023-03-06T12:57:43.323Z,0.40
2023-03-06T13:00:35.179Z,0.40
2023-03-06T13:03:30.419Z,0.50
2023-03-06T13:06:20.847Z,0.45
2023-03-06T13:09:09.336Z,0.70
2023-03-06T13:12:24.987Z,0.63
2023-03-06T13:14:54.896Z,0.60
2023-03-06T13:17:28.507Z,0.88
2023-03-06T13:20:13.427Z,0.88
2023-03-06T13:22:42.278Z,0.88
2023-03-06T13:25:21.147Z,1.20
2023-03-06T13:28:03.273Z,1.23
2023-03-06T13:30:38.869Z,1.60
2023-03-06T13:33:26.763Z,1.80
2023-03-06T13:35:59.058Z,1.88
2023-03-06T13:38:33.536Z,2.10
2023-03-06T13:41:25.031Z,2.17
2023-03-06T13:43:54.028Z,2.30
2023-03-06T13:46:25.801Z,2.33
2023-03-06T13:49:07.637Z,2.88
2023-03-06T13:51:40.221Z,2.83
2023-03-06T13:54:44.131Z,2.75
2023-03-06T13:57:29.905Z,3.13
2023-03-06T14:00:15.278Z,2.88
2023-03-06T14:02:55.109Z,3.50
2023-03-06T14:05:22.867Z,3.47
2023-03-06T14:08:15.840Z,3.50
2023-03-06T14:10:45.112Z,3.97
2023-03-06T14:13:22.198Z,3.72
2023-03-06T14:15:51.715Z,3.78
2023-03-06T14:18:25.596Z,3.90
2023-03-06T14:20:59.390Z,3.65
2023-03-06T14:23:29.073Z,2.80
2023-03-06T14:26:07.744Z,2.65
2023-03-06T14:28:35.389Z,3.15
2023-03-06T14:31:04.432Z,3.00
2023-03-06T14:33:36.875Z,2.42
2023-03-06T14:36:08.219Z,2.80
2023-03-06T14:38:42.261Z,2.00
2023-03-06T14:41:11.796Z,2.30
2023-03-06T14:43:39.512Z,2.03
2023-03-06T14:46:06.919Z,2.13
2023-03-06T14:48:45.375Z,1.60
2023-03-06T14:51:33.272Z,1.48
2023-03-06T14:54:02.168Z,1.27
2023-03-06T14:56:30.385Z,1.77
2023-03-06T14:59:01.221Z,1.60
2023-03-06T15:01:31.398Z,1.20
2023-03-06T15:04:00.359Z,1.77
2023-03-06T15:06:33.425Z,1.63
2023-03-06T15:09:21.616Z,1.70
2023-03-06T15:12:01.448Z,1.50
2023-03-06T15:14:37.320Z,1.73
2023-03-06T15:17:16.005Z,1.35
2023-03-06T15:19:42.949Z,1.52
2023-03-06T15:22:30.288Z,1.50
2023-03-06T15:25:20.286Z,1.70
2023-03-06T15:27:57.526Z,1.20
2023-03-06T15:30:26.841Z,1.33
2023-03-06T15:33:29.003Z,1.50
2023-03-06T15:36:01.777Z,1.60
2023-03-06T15:38:46.027Z,1.48
2023-03-06T15:41:28.596Z,1.02
2023-03-06T15:43:55.220Z,1.33
2023-03-06T15:46:21.728Z,1.70
2023-03-06T15:48:55.943Z,1.80
2023-03-06T15:51:23.270Z,1.90
2023-03-06T15:53:50.281Z,2.03
2023-03-06T15:56:21.412Z,2.55
2023-03-06T15:58:48.132Z,2.30
2023-03-06T16:01:17.482Z,2.30
2023-03-06T16:03:45.091Z,2.53
2023-03-06T16:06:26.068Z,2.53
2023-03-06T16:08:53.140Z,2.42
2023-03-06T16:11:35.427Z,3.10
2023-03-06T16:14:18.881Z,4.03
2023-03-06T16:16:45.815Z,4.32
2023-03-06T16:19:25.919Z,4.03
2023-03-06T16:21:53.582Z,3.95
2023-03-06T16:24:20.195Z,4.28
2023-03-06T16:26:50.973Z,4.87
2023-03-06T16:29:19.980Z,4.50
2023-03-06T16:31:46.642Z,4.40
2023-03-06T16:34:14.045Z,5.07
2023-03-06T16:36:41.013Z,5.20
2023-03-06T16:39:16.895Z,5.87
2023-03-06T16:41:44.921Z,5.30
2023-03-06T16:44:12.330Z,5.05
2023-03-06T16:46:41.590Z,5.45
2023-03-06T16:49:12.619Z,5.40
2023-03-06T16:51:40.459Z,5.43
2023-03-06T16:54:06.947Z,5.72
2023-03-06T16:56:33.412Z,5.32
2023-03-06T16:58:59.937Z,6.10
2023-03-06T17:01:26.568Z,5.45
2023-03-06T17:03:53.088Z,5.57
2023-03-06T17:06:21.797Z,5.40
2023-03-06T17:08:49.468Z,6.43
2023-03-06T17:11:17.045Z,6.00
2023-03-06T17:13:44.301Z,6.20
2023-03-06T17:16:18.798Z,6.40
2023-03-06T17:18:46.307Z,5.88
2023-03-06T17:21:15.678Z,6.28
2023-03-06T17:23:42.784Z,6.43
2023-03-06T17:26:20.405Z,5.53
2023-03-06T17:28:47.620Z,5.93
2023-03-06T17:31:19.952Z,5.55
2023-03-06T17:33:46.743Z,5.18
2023-03-06T17:36:16.800Z,5.55
2023-03-06T17:38:43.745Z,5.80
2023-03-06T17:41:10.972Z,5.70
2023-03-06T17:43:38.636Z,5.80
2023-03-06T17:46:10.918Z,5.55
2023-03-06T17:48:37.663Z,5.50
2023-03-06T17:51:04.979Z,5.43
2023-03-06T17:53:31.821Z,5.07
2023-03-06T17:55:58.543Z,5.47
2023-03-06T17:58:26.023Z,5.63
2023-03-06T18:00:52.998Z,5.32
2023-03-06T18:03:19.433Z,5.28
2023-03-06T18:05:45.979Z,5.83
2023-03-06T18:08:12.472Z,5.50
2023-03-06T18:10:43.439Z,5.45
2023-03-06T18:13:10.879Z,5.45
2023-03-06T18:15:41.371Z,5.72
2023-03-06T18:18:08.900Z,5.60
2023-03-06T18:20:41.166Z,6.10
2023-03-06T18:23:07.815Z,5.72
2023-03-06T18:25:34.298Z,5.90
2023-03-06T18:28:00.904Z,6.43
2023-03-06T18:30:27.655Z,7.17
2023-03-06T18:32:54.569Z,5.40
2023-03-06T18:35:21.687Z,6.47
2023-03-06T18:37:48.430Z,6.47
2023-03-06T18:40:15.264Z,6.05
2023-03-06T18:42:42.163Z,5.03
2023-03-06T18:45:09.719Z,5.63
2023-03-06T18:47:36.366Z,6.55
2023-03-06T18:50:03.205Z,5.93
2023-03-06T18:52:29.798Z,5.72
2023-03-06T18:54:56.367Z,5.87
2023-03-06T18:57:22.955Z,6.03
2023-03-06T18:59:49.534Z,6.28
2023-03-06T19:02:16.004Z,5.53
2023-03-06T19:04:42.467Z,6.40
2023-03-06T19:07:09.022Z,6.17
2023-03-06T19:09:35.620Z,5.90
2023-03-06T19:12:03.485Z,6.57
2023-03-06T19:14:30.169Z,5.88
2023-03-06T19:16:56.838Z,6.53
2023-03-06T19:19:26.276Z,6.13
2023-03-06T19:21:53.728Z,6.20
2023-03-06T19:24:20.191Z,5.35
2023-03-06T19:26:46.823Z,5.68
2023-03-06T19:29:13.422Z,5.57
2023-03-06T19:31:40.014Z,6.93
2023-03-06T19:34:06.582Z,6.07
2023-03-06T19:36:34.276Z,6.68
2023-03-06T19:39:03.914Z,5.90
2023-03-06T19:41:30.814Z,7.53
2023-03-06T19:44:02.198Z,7.23
2023-03-06T19:46:29.024Z,7.38
2023-03-06T19:49:00.765Z,7.60
2023-03-06T19:51:28.373Z,7.05
2023-03-06T19:53:57.446Z,7.43
2023-03-06T19:56:27.610Z,7.00
2023-03-06T19:58:54.926Z,7.68
2023-03-06T20:01:24.778Z,8.52
2023-03-06T20:04:00.420Z,7.15
2023-03-06T20:06:36.762Z,7.32
2023-03-06T20:09:08.356Z,7.30
2023-03-06T20:11:34.836Z,7.88
2023-03-06T20:14:03.361Z,6.95
2023-03-06T20:16:30.698Z,6.65
2023-03-06T20:18:58.966Z,7.70
2023-03-06T20:21:26.724Z,8.57
2023-03-06T20:23:54.860Z,7.35
2023-03-06T20:26:21.437Z,8.35
2023-03-06T20:28:48.221Z,8.05
2023-03-06T20:31:17.820Z,8.30
2023-03-06T20:33:50.215Z,6.93
2023-03-06T20:36:19.909Z,7.53
2023-03-06T20:38:47.038Z,7.40
2023-03-06T20:41:26.007Z,7.57
2023-03-06T20:43:53.099Z,7.47
2023-03-06T20:46:21.433Z,7.30
2023-03-06T20:48:50.611Z,6.50
2023-03-06T20:51:18.594Z,7.38
2023-03-06T20:53:47.451Z,7.43
2023-03-06T20:56:15.786Z,7.82
2023-03-06T20:58:42.760Z,7.70
2023-03-06T21:01:09.289Z,7.43
2023-03-06T21:03:35.760Z,7.22
2023-03-06T21:06:02.382Z,7.50
2023-03-06T21:08:28.905Z,6.70
2023-03-06T21:10:55.365Z,7.83
2023-03-06T21:13:21.834Z,6.80
2023-03-06T21:15:49.119Z,6.72
2023-03-06T21:18:15.702Z,7.47
2023-03-06T21:20:42.352Z,7.07
2023-03-06T21:23:09.190Z,7.23
2023-03-06T21:25:36.247Z,6.93
2023-03-06T21:28:03.139Z,7.40
2023-03-06T21:30:29.819Z,6.80
2023-03-06T21:32:56.391Z,6.85
2023-03-06T21:35:22.936Z,6.60
2023-03-06T21:37:49.541Z,6.90
2023-03-06T21:40:16.191Z,7.13
2023-03-06T21:42:42.752Z,6.95
2023-03-06T21:45:09.655Z,6.32
2023-03-06T21:47:40.904Z,5.97
2023-03-06T21:50:09.626Z,6.35
2023-03-06T21:52:36.234Z,6.68
2023-03-06T21:55:02.909Z,6.50
2023-03-06T21:57:29.518Z,6.78
2023-03-06T21:59:56.121Z,6.20
2023-03-06T22:02:22.847Z,6.00
2023-03-06T22:04:52.047Z,5.43
2023-03-06T22:07:19.479Z,5.00
2023-03-06T22:09:46.247Z,5.10
2023-03-06T22:12:12.762Z,4.27
2023-03-06T22:14:39.337Z,4.90
2023-03-06T22:17:05.851Z,4.10
2023-03-06T22:19:32.607Z,4.07
2023-03-06T22:21:59.216Z,4.28
2023-03-06T22:24:25.762Z,3.97
2023-03-06T22:26:52.413Z,3.60
2023-03-06T22:29:18.905Z,3.33
2023-03-06T22:31:45.518Z,3.08
2023-03-06T22:34:12.086Z,2.72
2023-03-06T22:36:38.717Z,2.50
2023-03-06T22:39:05.286Z,2.25
2023-03-06T22:41:32.024Z,2.72
2023-03-06T22:44:00.683Z,2.47
2023-03-06T22:46:27.724Z,2.45
2023-03-06T22:48:59.290Z,2.20
2023-03-06T22:51:27.449Z,2.15
2023-03-06T22:53:54.036Z,2.20
2023-03-06T22:56:21.752Z,2.00
2023-03-06T22:58:48.669Z,2.00
2023-03-06T23:01:27.219Z,2.20
2023-03-06T23:03:56.418Z,2.10
2023-03-06T23:06:24.308Z,2.03
2023-03-06T23:08:57.394Z,1.92
2023-03-06T23:11:25.467Z,1.95
2023-03-06T23:13:53.247Z,2.07
2023-03-06T23:16:20.128Z,1.90
2023-03-06T23:18:46.871Z,1.77
2023-03-06T23:21:16.125Z,2.20
2023-03-06T23:23:44.266Z,1.77
2023-03-06T23:26:13.473Z,1.90
2023-03-06T23:28:40.989Z,2.20
2023-03-06T23:31:20.660Z,2.88
2023-03-06T23:33:48.189Z,2.60
2023-03-06T23:36:16.910Z,3.03
2023-03-06T23:38:44.008Z,3.27
2023-03-06T23:41:13.499Z,1.98
2023-03-06T23:43:40.311Z,2.33
2023-03-06T23:46:07.721Z,2.40
2023-03-06T23:48:35.839Z,2.70
2023-03-06T23:51:12.892Z,2.30
2023-03-06T23:53:39.445Z,2.53
2023-03-06T23:56:06.877Z,3.30
2023-03-06T23:58:33.601Z,3.15
